createdAt,value
2022-08-02T00:00:36.627Z,12.37
2022-08-02T00:02:38.112Z,12.36
2022-08-02T00:04:39.632Z,12.33
2022-08-02T00:06:41.384Z,12.30
2022-08-02T00:08:42.881Z,12.27
2022-08-02T00:10:44.416Z,12.30
2022-08-02T00:12:45.884Z,12.32
2022-08-02T00:14:47.364Z,12.32
2022-08-02T00:16:49.034Z,12.32
2022-08-02T00:18:50.653Z,12.32
2022-08-02T00:20:52.232Z,12.32
2022-08-02T00:22:53.722Z,12.30
2022-08-02T00:24:55.213Z,12.29
2022-08-02T00:26:56.835Z,12.26
2022-08-02T00:28:58.369Z,12.24
2022-08-02T00:31:00.392Z,12.22
2022-08-02T00:33:02.620Z,12.20
2022-08-02T00:35:04.465Z,12.19
2022-08-02T00:37:05.989Z,12.17
2022-08-02T00:39:07.487Z,12.15
2022-08-02T00:41:29.031Z,12.11
2022-08-02T00:43:30.530Z,12.07
2022-08-02T00:46:02.755Z,12.05
2022-08-02T00:47:54.041Z,12.01
2022-08-02T00:49:55.666Z,12.00
2022-08-02T00:51:57.207Z,11.98
2022-08-02T00:53:58.694Z,11.94
2022-08-02T00:56:01.177Z,11.88
2022-08-02T00:58:02.879Z,11.85
2022-08-02T01:00:05.749Z,11.84
2022-08-02T01:02:07.414Z,11.82
2022-08-02T01:04:13.767Z,11.80
2022-08-02T01:06:17.046Z,11.75
2022-08-02T01:08:18.912Z,11.73
2022-08-02T01:10:20.955Z,11.73
2022-08-02T01:12:22.547Z,11.69
2022-08-02T01:14:25.897Z,11.64
2022-08-02T01:16:32.098Z,11.59
2022-08-02T01:18:42.101Z,11.55
2022-08-02T01:21:01.635Z,11.51
2022-08-02T01:23:22.690Z,11.49
2022-08-02T01:25:39.167Z,11.49
2022-08-02T01:28:00.537Z,11.49
2022-08-02T01:30:04.194Z,11.48
2022-08-02T01:32:13.882Z,11.47
2022-08-02T01:34:58.174Z,11.44
2022-08-02T01:37:11.175Z,11.39
2022-08-02T01:39:27.384Z,11.35
2022-08-02T01:41:34.979Z,11.32
2022-08-02T01:43:40.271Z,11.30
2022-08-02T01:45:43.107Z,11.27
2022-08-02T01:47:45.684Z,11.22
2022-08-02T01:49:51.850Z,11.20
2022-08-02T01:52:13.001Z,11.17
2022-08-02T01:54:18.488Z,11.17
2022-08-02T01:56:21.568Z,11.19
2022-08-02T01:58:25.165Z,11.19
2022-08-02T02:00:30.241Z,11.21
2022-08-02T02:02:32.887Z,11.20
2022-08-02T02:04:35.781Z,11.20
2022-08-02T02:06:38.944Z,11.19
2022-08-02T02:08:43.608Z,11.17
2022-08-02T02:10:46.026Z,11.16
2022-08-02T02:12:51.187Z,11.13
2022-08-02T02:14:54.696Z,11.10
2022-08-02T02:16:58.653Z,11.07
2022-08-02T02:19:02.928Z,11.07
2022-08-02T02:21:05.249Z,11.05
2022-08-02T02:23:06.930Z,11.02
2022-08-02T02:25:11.866Z,11.02
2022-08-02T02:27:17.532Z,11.02
2022-08-02T02:29:24.509Z,11.04
2022-08-02T02:31:28.884Z,11.05
2022-08-02T02:33:33.359Z,11.04
2022-08-02T02:35:37.513Z,11.02
2022-08-02T02:37:40.814Z,11.02
2022-08-02T02:39:44.567Z,11.03
2022-08-02T02:41:47.326Z,11.05
2022-08-02T02:43:49.487Z,11.04
2022-08-02T02:45:51.903Z,10.99
2022-08-02T02:47:55.921Z,10.97
2022-08-02T02:49:57.881Z,10.94
2022-08-02T02:52:00.757Z,10.92
2022-08-02T02:54:30.905Z,10.91
2022-08-02T02:56:24.471Z,10.93
2022-08-02T02:58:28.795Z,10.94
2022-08-02T03:00:49.712Z,10.95
2022-08-02T03:02:51.354Z,10.95
2022-08-02T03:04:56.264Z,10.95
2022-08-02T03:07:02.651Z,10.97
2022-08-02T03:09:05.678Z,10.96
2022-08-02T03:11:09.735Z,10.95
2022-08-02T03:13:12.741Z,10.90
2022-08-02T03:15:15.235Z,10.88
2022-08-02T03:17:16.797Z,10.84
2022-08-02T03:19:20.159Z,10.84
2022-08-02T03:21:22.519Z,10.84
2022-08-02T03:23:23.998Z,10.83
2022-08-02T03:25:25.566Z,10.83
2022-08-02T03:27:27.057Z,10.80
2022-08-02T03:29:31.494Z,10.77
2022-08-02T03:31:37.047Z,10.73
2022-08-02T03:33:39.459Z,10.71
2022-08-02T03:35:42.725Z,10.68
2022-08-02T03:37:45.546Z,10.65
2022-08-02T03:39:53.022Z,10.60
2022-08-02T03:41:55.435Z,10.56
2022-08-02T03:43:58.098Z,10.53
2022-08-02T03:46:01.387Z,10.55
2022-08-02T03:48:30.445Z,10.54
2022-08-02T03:50:26.603Z,10.52
2022-08-02T03:52:28.805Z,10.50
2022-08-02T03:54:33.110Z,10.49
2022-08-02T03:56:46.720Z,10.47
2022-08-02T03:58:49.414Z,10.48
2022-08-02T04:00:53.634Z,10.50
2022-08-02T04:02:55.260Z,10.51
2022-08-02T04:04:56.762Z,10.51
2022-08-02T04:06:58.261Z,10.51
2022-08-02T04:09:01.459Z,10.52
2022-08-02T04:11:21.618Z,10.55
2022-08-02T04:13:31.245Z,10.58
2022-08-02T04:15:33.366Z,10.57
2022-08-02T04:17:40.122Z,10.54
2022-08-02T04:19:50.078Z,10.52
2022-08-02T04:21:53.956Z,10.48
2022-08-02T04:23:56.458Z,10.46
2022-08-02T04:26:00.444Z,10.46
2022-08-02T04:28:16.620Z,10.48
2022-08-02T04:30:21.893Z,10.50
2022-08-02T04:32:24.092Z,10.48
2022-08-02T04:34:25.768Z,10.52
2022-08-02T04:36:31.423Z,10.53
2022-08-02T04:38:33.646Z,10.55
2022-08-02T04:40:35.425Z,10.66
2022-08-02T04:42:37.443Z,10.83
2022-08-02T04:44:38.934Z,10.99
2022-08-02T04:46:41.473Z,11.10
2022-08-02T04:48:43.122Z,11.25
2022-08-02T04:50:44.660Z,11.38
2022-08-02T04:52:46.222Z,11.51
2022-08-02T04:54:47.743Z,11.66
2022-08-02T04:56:49.255Z,11.79
2022-08-02T04:58:50.747Z,11.82
2022-08-02T05:00:52.375Z,11.85
2022-08-02T05:02:55.792Z,11.89
2022-08-02T05:04:57.307Z,11.93
2022-08-02T05:06:58.843Z,11.94
2022-08-02T05:09:00.443Z,11.96
2022-08-02T05:11:01.970Z,11.99
2022-08-02T05:13:05.371Z,12.03
2022-08-02T05:15:12.613Z,12.03
2022-08-02T05:17:15.248Z,12.06
2022-08-02T05:19:16.816Z,12.12
2022-08-02T05:21:18.629Z,12.21
2022-08-02T05:23:20.266Z,12.34
2022-08-02T05:25:21.793Z,12.50
2022-08-02T05:27:23.341Z,12.68
2022-08-02T05:29:26.164Z,12.82
2022-08-02T05:31:27.837Z,12.93
2022-08-02T05:33:29.325Z,12.99
2022-08-02T05:35:31.209Z,13.03
2022-08-02T05:37:33.124Z,13.04
2022-08-02T05:39:37.005Z,12.92
2022-08-02T05:41:56.733Z,12.90
2022-08-02T05:43:58.246Z,12.85
2022-08-02T05:46:00.169Z,12.94
2022-08-02T05:48:02.698Z,13.08
2022-08-02T05:50:09.744Z,13.21
2022-08-02T05:52:17.019Z,13.31
2022-08-02T05:54:39.379Z,13.42
2022-08-02T05:57:00.915Z,13.55
2022-08-02T05:59:12.119Z,13.58
2022-08-02T06:01:18.505Z,13.67
2022-08-02T06:03:37.006Z,13.75
2022-08-02T06:05:48.306Z,13.85
2022-08-02T06:07:51.244Z,13.94
2022-08-02T06:09:53.134Z,14.05
2022-08-02T06:12:11.684Z,14.14
2022-08-02T06:14:13.348Z,14.22
2022-08-02T06:16:15.142Z,14.27
2022-08-02T06:18:16.774Z,14.36
2022-08-02T06:20:21.098Z,14.47
2022-08-02T06:22:31.298Z,14.58
2022-08-02T06:24:36.028Z,14.70
2022-08-02T06:26:38.461Z,14.79
2022-08-02T06:28:40.971Z,14.90
2022-08-02T06:30:44.229Z,15.02
2022-08-02T06:32:48.134Z,15.10
2022-08-02T06:34:49.709Z,15.18
2022-08-02T06:37:04.644Z,15.30
2022-08-02T06:39:15.999Z,15.41
2022-08-02T06:41:18.546Z,15.49
2022-08-02T06:43:53.461Z,15.55
2022-08-02T06:45:55.044Z,15.48
2022-08-02T06:48:16.664Z,15.52
2022-08-02T06:50:18.478Z,15.58
2022-08-02T06:52:22.298Z,15.69
2022-08-02T06:54:27.090Z,15.82
2022-08-02T06:56:29.040Z,15.77
2022-08-02T06:58:30.596Z,15.83
2022-08-02T07:00:34.886Z,15.81
2022-08-02T07:02:37.135Z,15.90
2022-08-02T07:04:39.993Z,16.00
2022-08-02T07:06:41.499Z,16.02
2022-08-02T07:08:54.785Z,16.02
2022-08-02T07:11:05.776Z,16.16
2022-08-02T07:13:07.285Z,16.23
2022-08-02T07:15:10.254Z,16.30
2022-08-02T07:17:12.536Z,16.48
2022-08-02T07:19:14.033Z,16.63
2022-08-02T07:21:15.543Z,16.72
2022-08-02T07:23:18.123Z,16.75
2022-08-02T07:25:19.857Z,16.87
2022-08-02T07:27:22.043Z,16.99
2022-08-02T07:29:23.573Z,17.10
2022-08-02T07:31:25.160Z,17.21
2022-08-02T07:33:37.369Z,17.33
2022-08-02T07:35:41.020Z,17.39
2022-08-02T07:37:55.403Z,17.38
2022-08-02T07:40:07.573Z,17.47
2022-08-02T07:42:14.190Z,17.59
2022-08-02T07:44:16.011Z,17.71
2022-08-02T07:46:17.518Z,17.81
2022-08-02T07:48:19.096Z,17.86
2022-08-02T07:50:21.627Z,17.95
2022-08-02T07:52:23.134Z,18.03
2022-08-02T07:54:25.264Z,18.07
2022-08-02T07:56:27.416Z,18.14
2022-08-02T07:58:28.937Z,18.17
2022-08-02T08:00:30.657Z,18.29
2022-08-02T08:02:32.323Z,18.37
2022-08-02T08:04:33.823Z,18.47
2022-08-02T08:06:35.350Z,18.51
2022-08-02T08:08:37.130Z,18.59
2022-08-02T08:10:40.911Z,18.70
2022-08-02T08:12:42.421Z,18.78
2022-08-02T08:14:44.634Z,18.86
2022-08-02T08:16:46.237Z,18.92
2022-08-02T08:18:47.814Z,18.87
2022-08-02T08:20:49.734Z,18.85
2022-08-02T08:22:51.320Z,18.93
2022-08-02T08:24:52.872Z,19.00
2022-08-02T08:26:55.212Z,19.08
2022-08-02T08:28:56.710Z,19.17
2022-08-02T08:30:58.306Z,19.26
2022-08-02T08:32:59.860Z,19.28
2022-08-02T08:35:03.586Z,19.33
2022-08-02T08:37:05.192Z,19.34
2022-08-02T08:39:06.857Z,19.39
2022-08-02T08:41:08.471Z,19.53
2022-08-02T08:43:13.813Z,19.65
2022-08-02T08:45:15.414Z,19.73
2022-08-02T08:47:17.611Z,19.80
2022-08-02T08:49:26.407Z,19.85
2022-08-02T08:51:31.910Z,19.89
2022-08-02T08:53:40.223Z,20.00
2022-08-02T08:55:43.455Z,19.96
2022-08-02T08:57:46.123Z,20.07
2022-08-02T08:59:47.629Z,20.15
2022-08-02T09:01:51.292Z,20.25
2022-08-02T09:03:53.104Z,20.38
2022-08-02T09:05:58.302Z,20.49
2022-08-02T09:07:59.826Z,20.58
2022-08-02T09:10:01.394Z,20.66
2022-08-02T09:12:17.159Z,20.76
2022-08-02T09:14:29.766Z,20.76
2022-08-02T09:16:35.664Z,20.79
2022-08-02T09:18:39.817Z,20.83
2022-08-02T09:20:57.335Z,20.80
2022-08-02T09:23:11.437Z,20.82
2022-08-02T09:25:15.798Z,20.85
2022-08-02T09:27:21.351Z,20.84
2022-08-02T09:29:24.512Z,20.95
2022-08-02T09:31:26.614Z,21.08
2022-08-02T09:33:28.593Z,21.16
2022-08-02T09:36:07.327Z,21.32
2022-08-02T09:38:11.610Z,21.31
2022-08-02T09:40:13.321Z,21.30
2022-08-02T09:42:15.802Z,21.33
2022-08-02T09:44:17.525Z,21.39
2022-08-02T09:46:25.313Z,21.47
2022-08-02T09:48:26.828Z,21.56
2022-08-02T09:50:28.787Z,21.66
2022-08-02T09:52:36.838Z,21.75
2022-08-02T09:54:45.439Z,21.85
2022-08-02T09:56:49.715Z,21.92
2022-08-02T09:58:53.540Z,21.98
2022-08-02T10:00:56.968Z,22.04
2022-08-02T10:03:22.402Z,22.10
2022-08-02T10:05:30.446Z,22.20
2022-08-02T10:07:37.188Z,22.30
2022-08-02T10:09:46.359Z,22.34
2022-08-02T10:11:49.594Z,22.29
2022-08-02T10:13:52.807Z,22.31
2022-08-02T10:15:56.852Z,22.34
2022-08-02T10:17:58.524Z,22.30
2022-08-02T10:20:04.636Z,22.34
2022-08-02T10:22:11.450Z,22.39
2022-08-02T10:24:16.296Z,22.44
2022-08-02T10:26:20.827Z,22.59
2022-08-02T10:28:32.050Z,22.76
2022-08-02T10:30:37.289Z,22.96
2022-08-02T10:32:49.645Z,23.12
2022-08-02T10:35:02.790Z,23.22
2022-08-02T10:37:28.569Z,23.29
2022-08-02T10:39:42.724Z,23.45
2022-08-02T10:41:47.091Z,23.52
2022-08-02T10:43:49.042Z,23.66
2022-08-02T10:45:50.993Z,23.78
2022-08-02T10:48:14.479Z,23.86
2022-08-02T10:50:16.050Z,24.09
2022-08-02T10:52:19.228Z,24.34
2022-08-02T10:54:22.743Z,24.57
2022-08-02T10:56:51.367Z,24.81
2022-08-02T10:59:29.378Z,24.88
2022-08-02T11:01:38.675Z,25.03
2022-08-02T11:03:44.882Z,25.05
2022-08-02T11:06:01.792Z,25.34
2022-08-02T11:08:33.118Z,25.31
2022-08-02T11:10:39.708Z,25.46
2022-08-02T11:13:14.257Z,25.68
2022-08-02T11:15:16.281Z,25.94
2022-08-02T11:17:19.480Z,25.85
2022-08-02T11:19:22.160Z,26.03
2022-08-02T11:21:28.426Z,25.71
2022-08-02T11:23:44.399Z,25.64
2022-08-02T11:26:10.989Z,25.65
2022-08-02T11:28:12.160Z,25.72
2022-08-02T11:30:14.801Z,25.76
2022-08-02T11:32:30.555Z,25.81
2022-08-02T11:34:37.996Z,25.92
2022-08-02T11:36:50.855Z,25.65
2022-08-02T11:39:09.695Z,25.69
2022-08-02T11:41:46.295Z,25.78
2022-08-02T11:43:44.605Z,25.79
2022-08-02T11:45:46.753Z,25.80
2022-08-02T11:47:50.317Z,25.97
2022-08-02T11:49:51.866Z,25.99
2022-08-02T11:51:56.120Z,26.17
2022-08-02T11:53:57.653Z,26.13
2022-08-02T11:55:59.150Z,26.12
2022-08-02T11:58:06.223Z,26.30
2022-08-02T12:00:17.849Z,26.39
2022-08-02T12:02:27.214Z,26.41
2022-08-02T12:04:30.574Z,26.57
2022-08-02T12:06:34.695Z,26.55
2022-08-02T12:08:38.211Z,26.55
2022-08-02T12:10:47.786Z,26.58
2022-08-02T12:12:50.665Z,26.56
2022-08-02T12:14:53.496Z,26.51
2022-08-02T12:17:14.058Z,26.13
2022-08-02T12:19:19.451Z,26.08
2022-08-02T12:21:24.940Z,26.21
2022-08-02T12:23:27.132Z,26.19
2022-08-02T12:25:33.907Z,26.14
2022-08-02T12:27:43.433Z,26.04
2022-08-02T12:29:57.815Z,26.11
2022-08-02T12:32:01.613Z,26.13
2022-08-02T12:34:15.014Z,26.13
2022-08-02T12:36:22.021Z,26.05
2022-08-02T12:38:23.792Z,25.83
2022-08-02T12:40:32.930Z,25.87
2022-08-02T12:42:47.408Z,25.86
2022-08-02T12:44:57.597Z,25.93
2022-08-02T12:47:07.864Z,26.03
2022-08-02T12:49:19.134Z,26.13
2022-08-02T12:51:25.580Z,26.16
2022-08-02T12:53:47.471Z,25.98
2022-08-02T12:56:03.866Z,26.04
2022-08-02T12:58:05.812Z,26.17
2022-08-02T13:00:09.666Z,26.09
2022-08-02T13:02:12.967Z,26.12
2022-08-02T13:04:16.405Z,26.13
2022-08-02T13:08:41.495Z,26.15
2022-08-02T13:10:43.750Z,26.24
2022-08-02T13:12:45.859Z,26.28
2022-08-02T13:14:47.580Z,26.28
2022-08-02T13:16:49.376Z,26.30
2022-08-02T13:18:50.950Z,26.33
2022-08-02T13:20:52.499Z,26.35
2022-08-02T13:22:55.154Z,26.36
2022-08-02T13:25:05.729Z,26.36
2022-08-02T13:27:07.829Z,26.39
2022-08-02T13:29:13.813Z,26.45
2022-08-02T13:31:35.864Z,26.51
2022-08-02T13:33:36.905Z,26.45
2022-08-02T13:35:38.556Z,26.38
2022-08-02T13:37:41.869Z,26.37
2022-08-02T13:39:55.375Z,26.43
2022-08-02T13:42:05.860Z,26.56
2022-08-02T13:44:10.286Z,26.63
2022-08-02T13:46:12.394Z,26.64
2022-08-02T13:48:17.120Z,26.65
2022-08-02T13:50:20.082Z,26.68
2022-08-02T13:52:21.687Z,26.70
2022-08-02T13:54:23.381Z,26.69
2022-08-02T13:56:35.747Z,26.76
2022-08-02T13:58:37.624Z,26.87
2022-08-02T14:00:39.225Z,26.97
2022-08-02T14:02:40.802Z,27.02
2022-08-02T14:04:42.434Z,27.00
2022-08-02T14:06:44.000Z,26.92
2022-08-02T14:08:45.659Z,26.88
2022-08-02T14:10:48.574Z,26.92
2022-08-02T14:12:56.501Z,26.90
2022-08-02T14:14:58.245Z,26.81
2022-08-02T14:16:59.757Z,26.78
2022-08-02T14:19:05.248Z,26.81
2022-08-02T14:21:12.302Z,26.88
2022-08-02T14:23:14.437Z,26.83
2022-08-02T14:25:16.027Z,26.89
2022-08-02T14:27:17.726Z,26.94
2022-08-02T14:29:19.251Z,26.92
2022-08-02T14:31:20.782Z,26.95
2022-08-02T14:33:23.320Z,26.97
2022-08-02T14:35:25.134Z,26.96
2022-08-02T14:37:26.630Z,26.86
2022-08-02T14:39:28.134Z,26.79
2022-08-02T14:42:00.178Z,26.82
2022-08-02T14:44:05.726Z,26.88
2022-08-02T14:46:07.282Z,26.92
2022-08-02T14:48:11.134Z,26.91
2022-08-02T14:50:14.285Z,26.90
2022-08-02T14:52:16.065Z,26.97
2022-08-02T14:54:18.221Z,27.02
2022-08-02T14:56:19.924Z,27.06
2022-08-02T14:58:21.414Z,27.08
2022-08-02T15:00:22.951Z,27.08
2022-08-02T15:02:24.444Z,27.00
2022-08-02T15:04:26.313Z,26.94
2022-08-02T15:06:32.073Z,26.94
2022-08-02T15:08:33.566Z,27.02
2022-08-02T15:10:35.231Z,27.01
2022-08-02T15:12:36.750Z,26.99
2022-08-02T15:14:40.111Z,26.96
2022-08-02T15:16:55.432Z,26.89
2022-08-02T15:18:57.894Z,26.83
2022-08-02T15:20:59.458Z,26.88
2022-08-02T15:23:02.592Z,26.88
2022-08-02T15:25:04.445Z,26.94
2022-08-02T15:27:17.090Z,26.98
2022-08-02T15:29:19.192Z,27.03
2022-08-02T15:31:22.555Z,27.04
2022-08-02T15:33:35.075Z,27.02
2022-08-02T15:35:36.580Z,26.98
2022-08-02T15:37:41.325Z,27.02
2022-08-02T15:39:43.644Z,27.02
2022-08-02T15:41:45.143Z,27.07
2022-08-02T15:44:00.794Z,27.13
2022-08-02T15:46:03.536Z,27.12
2022-08-02T15:48:05.330Z,27.08
2022-08-02T15:50:07.295Z,27.08
2022-08-02T15:52:12.564Z,27.08
2022-08-02T15:54:14.276Z,27.10
2022-08-02T15:56:15.822Z,27.08
2022-08-02T15:58:23.873Z,27.02
2022-08-02T16:00:25.440Z,26.96
2022-08-02T16:02:27.017Z,26.96
2022-08-02T16:04:28.616Z,26.99
2022-08-02T16:06:30.249Z,27.03
2022-08-02T16:08:31.865Z,27.07
2022-08-02T16:10:34.119Z,27.06
2022-08-02T16:12:35.635Z,27.07
2022-08-02T16:14:37.190Z,27.02
2022-08-02T16:16:40.269Z,26.95
2022-08-02T16:18:42.189Z,26.90
2022-08-02T16:20:43.730Z,26.92
2022-08-02T16:22:45.232Z,26.93
2022-08-02T16:24:46.802Z,26.92
2022-08-02T16:26:49.146Z,26.88
2022-08-02T16:28:51.589Z,26.88
2022-08-02T16:31:04.931Z,26.88
2022-08-02T16:33:11.608Z,26.88
2022-08-02T16:35:13.268Z,26.89
2022-08-02T16:37:15.244Z,26.85
2022-08-02T16:39:17.082Z,26.84
2022-08-02T16:41:18.863Z,26.84
2022-08-02T16:43:20.931Z,26.83
2022-08-02T16:45:22.776Z,26.83
2022-08-02T16:47:42.696Z,26.77
2022-08-02T16:50:09.623Z,26.80
2022-08-02T16:52:09.487Z,26.78
2022-08-02T16:54:11.146Z,26.79
2022-08-02T16:56:12.789Z,26.78
2022-08-02T16:58:16.269Z,26.80
2022-08-02T17:00:18.876Z,26.83
2022-08-02T17:04:43.474Z,26.69
2022-08-02T17:06:47.826Z,26.70
2022-08-02T17:08:55.139Z,26.69
2022-08-02T17:10:56.701Z,26.71
2022-08-02T17:13:11.339Z,26.68
2022-08-02T17:16:07.605Z,26.65
2022-08-02T17:17:37.365Z,26.59
2022-08-02T17:19:42.068Z,26.60
2022-08-02T17:21:43.591Z,26.56
2022-08-02T17:24:05.234Z,26.56
2022-08-02T17:26:06.702Z,26.58
2022-08-02T17:28:10.467Z,26.60
2022-08-02T17:30:13.257Z,26.61
2022-08-02T17:32:15.605Z,26.63
2022-08-02T17:34:20.215Z,26.58
2022-08-02T17:36:28.699Z,26.57
2022-08-02T17:38:30.208Z,26.46
2022-08-02T17:40:32.314Z,26.47
2022-08-02T17:42:34.216Z,26.43
2022-08-02T17:44:38.555Z,26.43
2022-08-02T17:46:40.300Z,26.41
2022-08-02T17:49:00.584Z,26.34
2022-08-02T17:51:03.923Z,26.32
2022-08-02T17:53:05.825Z,26.29
2022-08-02T17:55:07.984Z,26.26
2022-08-02T17:57:11.212Z,26.26
2022-08-02T17:59:20.708Z,26.25
2022-08-02T18:01:24.149Z,26.27
2022-08-02T18:03:25.895Z,26.24
2022-08-02T18:05:39.428Z,26.23
2022-08-02T18:07:54.252Z,26.22
2022-08-02T18:09:58.356Z,26.18
2022-08-02T18:12:01.359Z,26.14
2022-08-02T18:14:02.871Z,26.15
2022-08-02T18:16:04.740Z,26.11
2022-08-02T18:18:06.680Z,26.11
2022-08-02T18:20:11.158Z,26.12
2022-08-02T18:22:13.126Z,26.08
2022-08-02T18:24:15.802Z,26.05
2022-08-02T18:26:20.749Z,26.05
2022-08-02T18:28:26.768Z,26.03
2022-08-02T18:30:28.704Z,26.01
2022-08-02T18:33:55.208Z,25.99
2022-08-02T18:34:53.059Z,25.97
2022-08-02T18:36:54.565Z,25.95
2022-08-02T18:38:56.476Z,25.90
2022-08-02T18:41:02.218Z,25.84
2022-08-02T18:43:07.152Z,25.80
2022-08-02T18:45:10.012Z,25.76
2022-08-02T18:47:22.704Z,25.70
2022-08-02T18:49:25.465Z,25.67
2022-08-02T18:51:36.701Z,25.62
2022-08-02T18:53:41.264Z,25.57
2022-08-02T18:56:03.118Z,25.53
2022-08-02T18:58:19.530Z,25.46
2022-08-02T19:00:25.903Z,25.40
2022-08-02T19:02:28.085Z,25.36
2022-08-02T19:04:29.706Z,25.31
2022-08-02T19:06:31.664Z,25.27
2022-08-02T19:08:34.799Z,25.24
2022-08-02T19:10:39.274Z,25.17
2022-08-02T19:12:51.620Z,25.12
2022-08-02T19:14:53.355Z,25.05
2022-08-02T19:17:00.424Z,25.00
2022-08-02T19:19:22.213Z,24.89
2022-08-02T19:22:15.760Z,24.83
2022-08-02T19:23:54.370Z,24.79
2022-08-02T19:25:56.599Z,24.79
2022-08-02T19:27:58.930Z,24.76
2022-08-02T19:30:03.954Z,24.70
2022-08-02T19:32:42.835Z,24.63
2022-08-02T19:34:31.209Z,24.58
2022-08-02T19:36:34.315Z,24.54
2022-08-02T19:38:38.551Z,24.49
2022-08-02T19:40:43.685Z,24.40
2022-08-02T19:44:23.518Z,24.34
2022-08-02T19:45:12.952Z,24.27
2022-08-02T19:47:19.139Z,24.22
2022-08-02T19:49:39.448Z,24.08
2022-08-02T19:51:54.727Z,24.02
2022-08-02T19:53:58.562Z,23.95
2022-08-02T19:56:03.190Z,23.94
2022-08-02T19:58:05.693Z,23.92
2022-08-02T20:00:09.424Z,23.92
2022-08-02T20:02:11.443Z,23.88
2022-08-02T20:04:14.095Z,23.77
2022-08-02T20:06:15.778Z,23.72
2022-08-02T20:08:35.694Z,23.68
2022-08-02T20:10:40.671Z,23.65
2022-08-02T20:12:47.394Z,23.60
2022-08-02T20:14:51.019Z,23.58
2022-08-02T20:16:53.841Z,23.57
2022-08-02T20:18:56.302Z,23.49
2022-08-02T20:20:58.264Z,23.41
2022-08-02T20:23:32.555Z,23.38
2022-08-02T20:25:35.675Z,23.35
2022-08-02T20:27:37.167Z,23.34
2022-08-02T20:29:52.669Z,23.30
2022-08-02T20:31:54.181Z,23.25
2022-08-02T20:33:56.735Z,23.19
2022-08-02T20:35:59.548Z,23.11
2022-08-02T20:38:04.632Z,23.07
2022-08-02T20:40:07.392Z,23.04
2022-08-02T20:42:23.294Z,23.01
2022-08-02T20:44:30.974Z,22.95
2022-08-02T20:46:33.744Z,22.91
2022-08-02T20:48:36.576Z,22.83
2022-08-02T20:50:54.149Z,22.78
2022-08-02T20:52:55.939Z,22.68
2022-08-02T20:54:57.541Z,22.63
2022-08-02T20:56:59.251Z,22.58
2022-08-02T20:59:03.690Z,22.55
2022-08-02T21:01:06.383Z,22.47
2022-08-02T21:03:10.047Z,22.39
2022-08-02T21:05:17.461Z,22.34
2022-08-02T21:07:20.136Z,22.31
2022-08-02T21:09:33.016Z,22.29
2022-08-02T21:11:50.802Z,22.29
2022-08-02T21:14:07.360Z,22.29
2022-08-02T21:16:13.693Z,22.25
2022-08-02T21:18:23.011Z,22.21
2022-08-02T21:20:30.476Z,22.19
2022-08-02T21:22:32.320Z,22.15
2022-08-02T21:24:33.823Z,22.12
2022-08-02T21:26:35.659Z,22.10
2022-08-02T21:28:44.927Z,22.06
2022-08-02T21:30:46.805Z,22.02
2022-08-02T21:32:50.649Z,21.99
2022-08-02T21:34:53.015Z,21.98
2022-08-02T21:36:55.329Z,21.93
2022-08-02T21:38:57.909Z,21.90
2022-08-02T21:40:59.499Z,21.90
2022-08-02T21:43:01.080Z,21.89
2022-08-02T21:45:16.970Z,21.88
2022-08-02T21:47:27.075Z,21.86
2022-08-02T21:50:08.471Z,21.85
2022-08-02T21:51:50.514Z,21.82
2022-08-02T21:54:17.954Z,21.79
2022-08-02T21:56:13.567Z,21.74
2022-08-02T21:58:15.141Z,21.71
2022-08-02T22:00:28.426Z,21.67
2022-08-02T22:02:31.190Z,21.66
2022-08-02T22:04:32.981Z,21.62
2022-08-02T22:06:35.054Z,21.59
2022-08-02T22:08:38.030Z,21.55
2022-08-02T22:11:17.211Z,21.49
2022-08-02T22:13:18.927Z,21.41
2022-08-02T22:15:25.871Z,21.33
2022-08-02T22:17:52.107Z,21.26
2022-08-02T22:19:55.239Z,21.21
2022-08-02T22:22:00.326Z,21.15
2022-08-02T22:24:01.870Z,21.13
2022-08-02T22:26:03.521Z,21.10
2022-08-02T22:28:37.643Z,21.07
2022-08-02T22:30:28.864Z,21.00
2022-08-02T22:32:49.039Z,20.98
2022-08-02T22:34:52.025Z,20.90
2022-08-02T22:36:54.290Z,20.87
2022-08-02T22:38:55.886Z,20.85
2022-08-02T22:40:57.468Z,20.82
2022-08-02T22:42:58.992Z,20.80
2022-08-02T22:45:00.692Z,20.79
2022-08-02T22:47:07.272Z,20.77
2022-08-02T22:49:37.136Z,20.75
2022-08-02T22:51:37.039Z,20.71
2022-08-02T22:53:38.557Z,20.72
2022-08-02T22:55:41.400Z,20.66
2022-08-02T22:57:50.590Z,20.61
2022-08-02T22:58:36.282Z,26.80
2022-08-02T23:00:00.021Z,20.54
2022-08-02T23:02:05.390Z,20.51
2022-08-02T23:04:06.884Z,20.48
2022-08-02T23:06:08.654Z,20.50
2022-08-02T23:08:10.234Z,20.49
2022-08-02T23:10:11.752Z,20.49
2022-08-02T23:12:15.127Z,20.50
2022-08-02T23:14:16.860Z,20.51
2022-08-02T23:16:38.189Z,20.50
2022-08-02T23:18:58.520Z,20.45
2022-08-02T23:21:00.174Z,20.38
2022-08-02T23:23:01.698Z,20.37
2022-08-02T23:25:04.487Z,20.33
2022-08-02T23:27:06.060Z,20.30
2022-08-02T23:29:07.558Z,20.32
2022-08-02T23:31:38.427Z,20.31
2022-08-02T23:34:04.385Z,20.28
2022-08-02T23:36:01.448Z,20.27
2022-08-02T23:38:03.779Z,20.27
2022-08-02T23:40:06.041Z,20.26
2022-08-02T23:42:07.747Z,20.25
2022-08-02T23:44:13.999Z,20.25
2022-08-02T23:46:16.478Z,20.22
2022-08-02T23:48:17.959Z,20.18
2022-08-02T23:50:19.728Z,20.15
2022-08-02T23:52:21.404Z,20.15
2022-08-02T23:54:26.213Z,20.11
2022-08-02T23:56:27.718Z,20.08
2022-08-02T23:58:29.359Z,20.06
